sensor_id;sensor_type;location;lat;lon;timestamp;pressure;altitude;pressure_sealevel;temperature;humidity
53960;BME280;39866;48.638;-2.020;2022-12-18T19:36:41;101071.09;;;10.65;88.13
53960;BME280;39866;48.638;-2.020;2022-12-18T19:39:10;101072.88;;;10.64;86.58
53960;BME280;39866;48.638;-2.020;2022-12-18T19:41:36;101084.97;;;10.79;85.37
53960;BME280;39866;48.638;-2.020;2022-12-18T19:44:01;101062.81;;;10.77;84.88
53960;BME280;39866;48.638;-2.020;2022-12-18T19:46:27;101081.94;;;10.93;84.58
53960;BME280;39866;48.638;-2.020;2022-12-18T19:48:52;101073.09;;;10.93;84.13
53960;BME280;39866;48.638;-2.020;2022-12-18T19:51:20;101085.50;;;10.94;83.76
53960;BME280;39866;48.638;-2.020;2022-12-18T19:53:47;101085.72;;;10.84;83.64
53960;BME280;39866;48.638;-2.020;2022-12-18T19:56:15;101076.38;;;11.04;83.16
53960;BME280;39866;48.638;-2.020;2022-12-18T19:58:40;101058.59;;;11.04;83.07
53960;BME280;39866;48.638;-2.020;2022-12-18T20:01:06;101080.03;;;11.00;82.96
53960;BME280;39866;48.638;-2.020;2022-12-18T20:03:32;101063.00;;;11.05;83.33
53960;BME280;39866;48.638;-2.020;2022-12-18T20:06:12;101053.06;;;11.12;82.98
53960;BME280;39866;48.638;-2.020;2022-12-18T20:08:38;101061.00;;;11.13;83.08
53960;BME280;39866;48.638;-2.020;2022-12-18T20:11:03;101054.75;;;11.16;82.91
53960;BME280;39866;48.638;-2.020;2022-12-18T20:13:29;101045.88;;;11.14;82.65
53960;BME280;39866;48.638;-2.020;2022-12-18T20:15:54;101058.31;;;11.15;83.07
53960;BME280;39866;48.638;-2.020;2022-12-18T20:18:19;101083.19;;;11.15;83.09
53960;BME280;39866;48.638;-2.020;2022-12-18T20:20:45;101064.53;;;11.15;83.87
53960;BME280;39866;48.638;-2.020;2022-12-18T20:23:10;101053.47;;;11.31;83.10
53960;BME280;39866;48.638;-2.020;2022-12-18T20:25:37;101059.56;;;11.34;82.77
53960;BME280;39866;48.638;-2.020;2022-12-18T20:28:03;101051.81;;;11.27;82.29
53960;BME280;39866;48.638;-2.020;2022-12-18T20:30:28;101053.75;;;11.20;82.82
53960;BME280;39866;48.638;-2.020;2022-12-18T20:32:53;101054.41;;;11.28;82.44
53960;BME280;39866;48.638;-2.020;2022-12-18T20:35:19;101057.16;;;11.25;82.96
53960;BME280;39866;48.638;-2.020;2022-12-18T20:37:44;101066.81;;;11.31;83.05
53960;BME280;39866;48.638;-2.020;2022-12-18T20:40:09;101068.41;;;11.36;83.24
53960;BME280;39866;48.638;-2.020;2022-12-18T20:42:35;101069.00;;;11.48;82.64
53960;BME280;39866;48.638;-2.020;2022-12-18T20:45:00;101071.75;;;11.45;82.75
53960;BME280;39866;48.638;-2.020;2022-12-18T20:47:26;101080.00;;;11.35;82.50
53960;BME280;39866;48.638;-2.020;2022-12-18T20:49:51;101050.03;;;11.26;82.49
53960;BME280;39866;48.638;-2.020;2022-12-18T20:52:16;101066.41;;;11.45;82.67
53960;BME280;39866;48.638;-2.020;2022-12-18T20:54:42;101068.28;;;11.41;82.73
53960;BME280;39866;48.638;-2.020;2022-12-18T20:57:07;101060.66;;;11.60;82.37
53960;BME280;39866;48.638;-2.020;2022-12-18T20:59:32;101048.50;;;11.50;82.33
53960;BME280;39866;48.638;-2.020;2022-12-18T21:01:58;101071.56;;;11.51;82.19
53960;BME280;39866;48.638;-2.020;2022-12-18T21:04:23;101059.94;;;11.53;82.51
53960;BME280;39866;48.638;-2.020;2022-12-18T21:06:49;101044.28;;;11.41;82.70
53960;BME280;39866;48.638;-2.020;2022-12-18T21:09:15;101057.41;;;11.49;82.87
53960;BME280;39866;48.638;-2.020;2022-12-18T21:11:41;101052.63;;;11.61;82.33
53960;BME280;39866;48.638;-2.020;2022-12-18T21:14:26;101057.81;;;11.66;82.54
53960;BME280;39866;48.638;-2.020;2022-12-18T21:16:52;101055.41;;;11.57;82.32
53960;BME280;39866;48.638;-2.020;2022-12-18T21:19:20;101060.56;;;11.63;82.35
53960;BME280;39866;48.638;-2.020;2022-12-18T21:21:47;101030.13;;;11.70;82.33
53960;BME280;39866;48.638;-2.020;2022-12-18T21:24:13;101054.34;;;11.62;82.84
53960;BME280;39866;48.638;-2.020;2022-12-18T21:26:39;101056.88;;;11.69;82.67
53960;BME280;39866;48.638;-2.020;2022-12-18T21:29:07;101056.53;;;11.81;82.63
53960;BME280;39866;48.638;-2.020;2022-12-18T21:31:34;101070.56;;;11.87;82.71
53960;BME280;39866;48.638;-2.020;2022-12-18T21:34:00;101056.28;;;11.90;81.69
53960;BME280;39866;48.638;-2.020;2022-12-18T21:36:25;101063.22;;;11.96;81.31
53960;BME280;39866;48.638;-2.020;2022-12-18T21:38:54;101079.22;;;11.97;81.75
53960;BME280;39866;48.638;-2.020;2022-12-18T21:41:20;101068.56;;;11.96;81.92
53960;BME280;39866;48.638;-2.020;2022-12-18T21:44:05;101070.09;;;12.04;82.17
53960;BME280;39866;48.638;-2.020;2022-12-18T21:46:36;101060.84;;;12.16;81.78
53960;BME280;39866;48.638;-2.020;2022-12-18T21:49:02;101082.03;;;12.22;81.50
53960;BME280;39866;48.638;-2.020;2022-12-18T21:51:29;101074.81;;;11.95;81.06
53960;BME280;39866;48.638;-2.020;2022-12-18T21:53:54;101076.25;;;12.06;81.38
53960;BME280;39866;48.638;-2.020;2022-12-18T21:56:19;101072.66;;;12.07;81.18
53960;BME280;39866;48.638;-2.020;2022-12-18T21:58:49;101083.75;;;12.23;81.08
53960;BME280;39866;48.638;-2.020;2022-12-18T22:01:15;101080.16;;;12.24;81.04
53960;BME280;39866;48.638;-2.020;2022-12-18T22:03:40;101080.66;;;12.09;81.02
53960;BME280;39866;48.638;-2.020;2022-12-18T22:06:06;101080.16;;;12.24;81.16
53960;BME280;39866;48.638;-2.020;2022-12-18T22:08:32;101063.50;;;12.16;80.85
53960;BME280;39866;48.638;-2.020;2022-12-18T22:10:57;101056.97;;;12.26;81.00
53960;BME280;39866;48.638;-2.020;2022-12-18T22:13:22;101056.97;;;12.26;80.67
53960;BME280;39866;48.638;-2.020;2022-12-18T22:15:48;101055.19;;;12.27;80.89
53960;BME280;39866;48.638;-2.020;2022-12-18T22:18:14;101080.22;;;12.23;80.80
53960;BME280;39866;48.638;-2.020;2022-12-18T22:20:39;101084.69;;;12.22;81.19
53960;BME280;39866;48.638;-2.020;2022-12-18T22:23:05;101070.34;;;12.26;80.48
53960;BME280;39866;48.638;-2.020;2022-12-18T22:25:30;101081.94;;;12.25;80.60
53960;BME280;39866;48.638;-2.020;2022-12-18T22:27:56;101059.28;;;12.09;80.96
53960;BME280;39866;48.638;-2.020;2022-12-18T22:30:39;101096.53;;;12.12;81.39
53960;BME280;39866;48.638;-2.020;2022-12-18T22:33:05;101096.19;;;12.24;81.37
53960;BME280;39866;48.638;-2.020;2022-12-18T22:35:30;101098.13;;;12.19;80.82
53960;BME280;39866;48.638;-2.020;2022-12-18T22:37:58;101097.75;;;12.31;81.10
53960;BME280;39866;48.638;-2.020;2022-12-18T22:40:23;101082.72;;;12.29;80.67
53960;BME280;39866;48.638;-2.020;2022-12-18T22:42:49;101091.75;;;12.25;80.79
53960;BME280;39866;48.638;-2.020;2022-12-18T22:45:15;101104.75;;;12.35;80.56
53960;BME280;39866;48.638;-2.020;2022-12-18T22:47:40;101090.63;;;12.32;80.23
53960;BME280;39866;48.638;-2.020;2022-12-18T22:50:07;101096.94;;;12.29;80.48
53960;BME280;39866;48.638;-2.020;2022-12-18T22:52:32;101115.28;;;12.40;80.07
53960;BME280;39866;48.638;-2.020;2022-12-18T22:54:57;101097.38;;;12.44;79.71
53960;BME280;39866;48.638;-2.020;2022-12-18T22:57:23;101105.22;;;12.50;79.86
53960;BME280;39866;48.638;-2.020;2022-12-18T22:59:49;101106.25;;;12.44;79.95
53960;BME280;39866;48.638;-2.020;2022-12-18T23:02:16;101097.88;;;12.56;79.75
53960;BME280;39866;48.638;-2.020;2022-12-18T23:04:44;101101.63;;;12.51;79.77
53960;BME280;39866;48.638;-2.020;2022-12-18T23:07:09;101117.78;;;12.46;79.49
53960;BME280;39866;48.638;-2.020;2022-12-18T23:09:35;101109.06;;;12.41;79.74
53960;BME280;39866;48.638;-2.020;2022-12-18T23:12:01;101113.41;;;12.44;79.85
53960;BME280;39866;48.638;-2.020;2022-12-18T23:14:28;101101.91;;;12.42;79.70
53960;BME280;39866;48.638;-2.020;2022-12-18T23:16:53;101107.41;;;12.37;79.67
53960;BME280;39866;48.638;-2.020;2022-12-18T23:19:20;101115.94;;;12.48;79.60
53960;BME280;39866;48.638;-2.020;2022-12-18T23:21:45;101114.03;;;12.53;79.15
53960;BME280;39866;48.638;-2.020;2022-12-18T23:24:11;101104.38;;;12.48;79.63
53960;BME280;39866;48.638;-2.020;2022-12-18T23:26:36;101108.06;;;12.44;79.34
53960;BME280;39866;48.638;-2.020;2022-12-18T23:29:02;101104.09;;;12.57;79.54
53960;BME280;39866;48.638;-2.020;2022-12-18T23:31:30;101109.56;;;12.52;79.24
53960;BME280;39866;48.638;-2.020;2022-12-18T23:33:58;101092.91;;;12.44;79.48
53960;BME280;39866;48.638;-2.020;2022-12-18T23:36:24;101102.06;;;12.37;79.76
53960;BME280;39866;48.638;-2.020;2022-12-18T23:38:51;101110.59;;;12.48;79.59
53960;BME280;39866;48.638;-2.020;2022-12-18T23:41:19;101101.22;;;12.35;79.86
53960;BME280;39866;48.638;-2.020;2022-12-18T23:43:45;101102.63;;;12.47;79.38
53960;BME280;39866;48.638;-2.020;2022-12-18T23:46:12;101100.59;;;12.55;79.57
53960;BME280;39866;48.638;-2.020;2022-12-18T23:48:40;101102.50;;;12.51;79.19
53960;BME280;39866;48.638;-2.020;2022-12-18T23:51:07;101104.22;;;12.54;78.84
53960;BME280;39866;48.638;-2.020;2022-12-18T23:53:33;101087.97;;;12.60;79.16
53960;BME280;39866;48.638;-2.020;2022-12-18T23:55:59;101092.59;;;12.55;79.50
53960;BME280;39866;48.638;-2.020;2022-12-18T23:58:25;101091.91;;;12.48;79.17
